sensor_id;sensor_type;location;lat;lon;timestamp;P1;durP1;ratioP1;P2;durP2;ratioP2
16612;SDS011;8419;52.358;9.752;2023-05-07T00:00:33;14.80;;;10.93;;
16612;SDS011;8419;52.358;9.752;2023-05-07T00:03:18;16.42;;;10.95;;
16612;SDS011;8419;52.358;9.752;2023-05-07T00:06:04;15.50;;;10.63;;
16612;SDS011;8419;52.358;9.752;2023-05-07T00:08:50;13.90;;;10.50;;
16612;SDS011;8419;52.358;9.752;2023-05-07T00:11:35;18.25;;;10.93;;
16612;SDS011;8419;52.358;9.752;2023-05-07T00:14:21;12.85;;;10.30;;
16612;SDS011;8419;52.358;9.752;2023-05-07T00:17:07;16.58;;;11.38;;
16612;SDS011;8419;52.358;9.752;2023-05-07T00:19:53;15.68;;;10.27;;
16612;SDS011;8419;52.358;9.752;2023-05-07T00:22:38;12.98;;;10.30;;
16612;SDS011;8419;52.358;9.752;2023-05-07T00:25:24;16.15;;;10.20;;
16612;SDS011;8419;52.358;9.752;2023-05-07T00:28:12;16.10;;;11.30;;
16612;SDS011;8419;52.358;9.752;2023-05-07T00:30:58;17.25;;;11.25;;
16612;SDS011;8419;52.358;9.752;2023-05-07T00:33:43;17.25;;;11.63;;
16612;SDS011;8419;52.358;9.752;2023-05-07T00:36:29;14.75;;;10.88;;
16612;SDS011;8419;52.358;9.752;2023-05-07T00:39:15;17.37;;;12.15;;
16612;SDS011;8419;52.358;9.752;2023-05-07T00:42:00;19.58;;;11.50;;
16612;SDS011;8419;52.358;9.752;2023-05-07T00:44:47;17.62;;;11.20;;
16612;SDS011;8419;52.358;9.752;2023-05-07T00:47:32;21.08;;;12.27;;
16612;SDS011;8419;52.358;9.752;2023-05-07T00:50:19;19.35;;;11.60;;
16612;SDS011;8419;52.358;9.752;2023-05-07T00:53:05;17.30;;;11.52;;
16612;SDS011;8419;52.358;9.752;2023-05-07T00:55:52;18.52;;;12.20;;
16612;SDS011;8419;52.358;9.752;2023-05-07T00:58:37;18.65;;;11.57;;
16612;SDS011;8419;52.358;9.752;2023-05-07T01:01:24;19.10;;;12.75;;
16612;SDS011;8419;52.358;9.752;2023-05-07T01:04:10;17.27;;;12.88;;
16612;SDS011;8419;52.358;9.752;2023-05-07T01:06:55;18.60;;;12.30;;
16612;SDS011;8419;52.358;9.752;2023-05-07T01:09:42;17.75;;;11.90;;
16612;SDS011;8419;52.358;9.752;2023-05-07T01:12:29;17.33;;;12.65;;
16612;SDS011;8419;52.358;9.752;2023-05-07T01:15:16;19.62;;;13.27;;
16612;SDS011;8419;52.358;9.752;2023-05-07T01:18:01;18.42;;;12.13;;
16612;SDS011;8419;52.358;9.752;2023-05-07T01:20:48;16.55;;;11.63;;
16612;SDS011;8419;52.358;9.752;2023-05-07T01:23:33;21.37;;;13.52;;
16612;SDS011;8419;52.358;9.752;2023-05-07T01:26:20;19.73;;;12.73;;
16612;SDS011;8419;52.358;9.752;2023-05-07T01:29:06;17.67;;;11.95;;
16612;SDS011;8419;52.358;9.752;2023-05-07T01:31:51;17.62;;;12.10;;
16612;SDS011;8419;52.358;9.752;2023-05-07T01:34:38;16.67;;;11.88;;
16612;SDS011;8419;52.358;9.752;2023-05-07T01:37:25;17.70;;;12.05;;
16612;SDS011;8419;52.358;9.752;2023-05-07T01:40:11;18.75;;;12.18;;
16612;SDS011;8419;52.358;9.752;2023-05-07T01:42:57;19.23;;;12.52;;
16612;SDS011;8419;52.358;9.752;2023-05-07T01:45:43;20.42;;;12.52;;
16612;SDS011;8419;52.358;9.752;2023-05-07T01:48:29;17.20;;;11.77;;
16612;SDS011;8419;52.358;9.752;2023-05-07T01:51:15;16.85;;;11.48;;
16612;SDS011;8419;52.358;9.752;2023-05-07T01:54:00;16.40;;;10.18;;
16612;SDS011;8419;52.358;9.752;2023-05-07T01:56:46;15.23;;;10.43;;
16612;SDS011;8419;52.358;9.752;2023-05-07T01:59:33;14.23;;;10.13;;
16612;SDS011;8419;52.358;9.752;2023-05-07T02:02:18;14.68;;;9.73;;
16612;SDS011;8419;52.358;9.752;2023-05-07T02:05:05;17.40;;;10.80;;
16612;SDS011;8419;52.358;9.752;2023-05-07T02:07:51;15.63;;;9.88;;
16612;SDS011;8419;52.358;9.752;2023-05-07T02:10:36;13.45;;;9.88;;
16612;SDS011;8419;52.358;9.752;2023-05-07T02:13:21;15.18;;;10.23;;
16612;SDS011;8419;52.358;9.752;2023-05-07T02:16:08;14.32;;;9.43;;
16612;SDS011;8419;52.358;9.752;2023-05-07T02:18:55;15.20;;;9.02;;
16612;SDS011;8419;52.358;9.752;2023-05-07T02:21:40;11.60;;;7.93;;
16612;SDS011;8419;52.358;9.752;2023-05-07T02:24:26;13.40;;;8.93;;
16612;SDS011;8419;52.358;9.752;2023-05-07T02:27:11;11.63;;;7.60;;
16612;SDS011;8419;52.358;9.752;2023-05-07T02:29:57;10.82;;;7.57;;
16612;SDS011;8419;52.358;9.752;2023-05-07T02:32:42;10.52;;;6.75;;
16612;SDS011;8419;52.358;9.752;2023-05-07T02:35:28;10.40;;;7.05;;
16612;SDS011;8419;52.358;9.752;2023-05-07T02:38:13;7.97;;;6.30;;
16612;SDS011;8419;52.358;9.752;2023-05-07T02:40:59;10.57;;;7.87;;
16612;SDS011;8419;52.358;9.752;2023-05-07T02:43:45;8.98;;;6.68;;
16612;SDS011;8419;52.358;9.752;2023-05-07T02:46:30;9.93;;;6.80;;
16612;SDS011;8419;52.358;9.752;2023-05-07T02:49:15;9.85;;;6.50;;
16612;SDS011;8419;52.358;9.752;2023-05-07T02:52:02;9.70;;;6.80;;
16612;SDS011;8419;52.358;9.752;2023-05-07T02:54:47;8.93;;;6.18;;
16612;SDS011;8419;52.358;9.752;2023-05-07T02:57:33;9.02;;;6.18;;
16612;SDS011;8419;52.358;9.752;2023-05-07T03:00:20;8.98;;;6.78;;
16612;SDS011;8419;52.358;9.752;2023-05-07T03:03:07;10.05;;;7.00;;
16612;SDS011;8419;52.358;9.752;2023-05-07T03:05:53;11.52;;;7.62;;
16612;SDS011;8419;52.358;9.752;2023-05-07T03:08:38;10.38;;;7.35;;
16612;SDS011;8419;52.358;9.752;2023-05-07T03:11:25;10.43;;;7.28;;
16612;SDS011;8419;52.358;9.752;2023-05-07T03:14:10;9.98;;;6.90;;
16612;SDS011;8419;52.358;9.752;2023-05-07T03:16:56;9.88;;;6.93;;
16612;SDS011;8419;52.358;9.752;2023-05-07T03:19:41;9.05;;;6.55;;
16612;SDS011;8419;52.358;9.752;2023-05-07T03:22:29;10.27;;;7.50;;
16612;SDS011;8419;52.358;9.752;2023-05-07T03:25:14;12.77;;;7.15;;
16612;SDS011;8419;52.358;9.752;2023-05-07T03:28:00;10.40;;;6.75;;
16612;SDS011;8419;52.358;9.752;2023-05-07T03:30:46;8.43;;;5.78;;
16612;SDS011;8419;52.358;9.752;2023-05-07T03:33:32;8.23;;;6.00;;
16612;SDS011;8419;52.358;9.752;2023-05-07T03:36:19;8.80;;;6.55;;
16612;SDS011;8419;52.358;9.752;2023-05-07T03:39:05;8.93;;;5.78;;
16612;SDS011;8419;52.358;9.752;2023-05-07T03:41:50;8.57;;;6.32;;
16612;SDS011;8419;52.358;9.752;2023-05-07T03:44:36;8.73;;;6.15;;
16612;SDS011;8419;52.358;9.752;2023-05-07T03:47:21;8.18;;;6.05;;
16612;SDS011;8419;52.358;9.752;2023-05-07T03:50:07;9.23;;;6.12;;
16612;SDS011;8419;52.358;9.752;2023-05-07T03:52:54;9.15;;;6.15;;
16612;SDS011;8419;52.358;9.752;2023-05-07T03:55:39;8.45;;;5.68;;
16612;SDS011;8419;52.358;9.752;2023-05-07T03:58:25;8.50;;;6.40;;
16612;SDS011;8419;52.358;9.752;2023-05-07T04:01:10;12.00;;;5.95;;
16612;SDS011;8419;52.358;9.752;2023-05-07T04:03:56;7.07;;;4.82;;
16612;SDS011;8419;52.358;9.752;2023-05-07T04:06:42;7.50;;;5.22;;
16612;SDS011;8419;52.358;9.752;2023-05-07T04:09:28;8.52;;;5.55;;
16612;SDS011;8419;52.358;9.752;2023-05-07T04:12:13;8.73;;;6.00;;
16612;SDS011;8419;52.358;9.752;2023-05-07T04:14:59;10.52;;;5.85;;
16612;SDS011;8419;52.358;9.752;2023-05-07T04:17:45;8.57;;;6.62;;
16612;SDS011;8419;52.358;9.752;2023-05-07T04:20:30;8.25;;;6.10;;
16612;SDS011;8419;52.358;9.752;2023-05-07T04:23:20;7.87;;;6.30;;
16612;SDS011;8419;52.358;9.752;2023-05-07T04:26:05;8.70;;;6.10;;
16612;SDS011;8419;52.358;9.752;2023-05-07T04:28:51;8.95;;;6.00;;
16612;SDS011;8419;52.358;9.752;2023-05-07T04:31:38;6.80;;;5.35;;
16612;SDS011;8419;52.358;9.752;2023-05-07T04:34:24;8.35;;;6.32;;
16612;SDS011;8419;52.358;9.752;2023-05-07T04:37:10;7.97;;;6.62;;
16612;SDS011;8419;52.358;9.752;2023-05-07T04:39:55;9.88;;;6.22;;
16612;SDS011;8419;52.358;9.752;2023-05-07T04:42:41;8.65;;;6.55;;
16612;SDS011;8419;52.358;9.752;2023-05-07T04:45:26;8.80;;;6.32;;
16612;SDS011;8419;52.358;9.752;2023-05-07T04:48:11;7.78;;;5.82;;
16612;SDS011;8419;52.358;9.752;2023-05-07T04:50:59;9.65;;;6.80;;
16612;SDS011;8419;52.358;9.752;2023-05-07T04:53:46;9.15;;;6.65;;
16612;SDS011;8419;52.358;9.752;2023-05-07T04:56:31;8.60;;;6.60;;
16612;SDS011;8419;52.358;9.752;2023-05-07T04:59:17;11.73;;;6.72;;
16612;SDS011;8419;52.358;9.752;2023-05-07T05:02:02;8.27;;;6.93;;
16612;SDS011;8419;52.358;9.752;2023-05-07T05:04:50;11.63;;;7.37;;
16612;SDS011;8419;52.358;9.752;2023-05-07T05:07:35;8.35;;;6.57;;
16612;SDS011;8419;52.358;9.752;2023-05-07T05:10:21;10.10;;;6.10;;
16612;SDS011;8419;52.358;9.752;2023-05-07T05:13:10;8.95;;;6.50;;
16612;SDS011;8419;52.358;9.752;2023-05-07T05:15:57;8.23;;;6.35;;
16612;SDS011;8419;52.358;9.752;2023-05-07T05:18:42;8.35;;;5.95;;
16612;SDS011;8419;52.358;9.752;2023-05-07T05:21:28;9.50;;;7.03;;
16612;SDS011;8419;52.358;9.752;2023-05-07T05:24:13;8.85;;;6.10;;
16612;SDS011;8419;52.358;9.752;2023-05-07T05:27:00;7.32;;;5.62;;
16612;SDS011;8419;52.358;9.752;2023-05-07T05:29:46;8.60;;;6.20;;
16612;SDS011;8419;52.358;9.752;2023-05-07T05:32:31;8.15;;;6.15;;
16612;SDS011;8419;52.358;9.752;2023-05-07T05:35:16;8.38;;;5.40;;
16612;SDS011;8419;52.358;9.752;2023-05-07T05:38:01;7.78;;;5.65;;
16612;SDS011;8419;52.358;9.752;2023-05-07T05:40:47;8.13;;;6.30;;
16612;SDS011;8419;52.358;9.752;2023-05-07T05:43:34;6.93;;;5.65;;
16612;SDS011;8419;52.358;9.752;2023-05-07T05:46:19;8.43;;;6.12;;
16612;SDS011;8419;52.358;9.752;2023-05-07T05:49:07;7.82;;;5.78;;
16612;SDS011;8419;52.358;9.752;2023-05-07T05:51:52;8.68;;;6.18;;
16612;SDS011;8419;52.358;9.752;2023-05-07T05:54:37;7.78;;;5.65;;
16612;SDS011;8419;52.358;9.752;2023-05-07T05:57:22;9.07;;;5.70;;
16612;SDS011;8419;52.358;9.752;2023-05-07T06:00:09;6.53;;;5.32;;
16612;SDS011;8419;52.358;9.752;2023-05-07T06:02:55;7.57;;;5.62;;
16612;SDS011;8419;52.358;9.752;2023-05-07T06:05:41;7.25;;;5.97;;
16612;SDS011;8419;52.358;9.752;2023-05-07T06:08:28;9.23;;;5.78;;
16612;SDS011;8419;52.358;9.752;2023-05-07T06:11:14;8.50;;;5.97;;
16612;SDS011;8419;52.358;9.752;2023-05-07T06:14:00;6.78;;;5.50;;
16612;SDS011;8419;52.358;9.752;2023-05-07T06:16:45;8.25;;;5.50;;
16612;SDS011;8419;52.358;9.752;2023-05-07T06:19:31;8.27;;;5.62;;
16612;SDS011;8419;52.358;9.752;2023-05-07T06:22:17;6.62;;;5.55;;
16612;SDS011;8419;52.358;9.752;2023-05-07T06:25:03;8.50;;;5.50;;
16612;SDS011;8419;52.358;9.752;2023-05-07T06:27:50;8.40;;;5.80;;
16612;SDS011;8419;52.358;9.752;2023-05-07T06:30:36;7.05;;;5.95;;
16612;SDS011;8419;52.358;9.752;2023-05-07T06:33:21;6.78;;;5.32;;
16612;SDS011;8419;52.358;9.752;2023-05-07T06:36:08;6.35;;;4.97;;
16612;SDS011;8419;52.358;9.752;2023-05-07T06:38:53;5.57;;;4.78;;
16612;SDS011;8419;52.358;9.752;2023-05-07T06:41:39;6.28;;;4.93;;
16612;SDS011;8419;52.358;9.752;2023-05-07T06:44:24;6.00;;;4.80;;
16612;SDS011;8419;52.358;9.752;2023-05-07T06:47:09;7.55;;;4.95;;
16612;SDS011;8419;52.358;9.752;2023-05-07T06:49:55;8.55;;;5.00;;
16612;SDS011;8419;52.358;9.752;2023-05-07T06:52:40;5.45;;;4.65;;
16612;SDS011;8419;52.358;9.752;2023-05-07T06:55:26;6.90;;;4.30;;
16612;SDS011;8419;52.358;9.752;2023-05-07T06:58:12;6.47;;;5.22;;
16612;SDS011;8419;52.358;9.752;2023-05-07T07:00:58;7.60;;;5.53;;
16612;SDS011;8419;52.358;9.752;2023-05-07T07:03:43;7.03;;;5.30;;
16612;SDS011;8419;52.358;9.752;2023-05-07T07:06:29;8.23;;;5.93;;
16612;SDS011;8419;52.358;9.752;2023-05-07T07:09:15;7.43;;;5.65;;
16612;SDS011;8419;52.358;9.752;2023-05-07T07:12:01;6.00;;;5.40;;
16612;SDS011;8419;52.358;9.752;2023-05-07T07:14:47;7.57;;;6.70;;
16612;SDS011;8419;52.358;9.752;2023-05-07T07:17:32;8.25;;;7.15;;
16612;SDS011;8419;52.358;9.752;2023-05-07T07:20:18;8.38;;;7.45;;
16612;SDS011;8419;52.358;9.752;2023-05-07T07:23:03;7.57;;;6.78;;
16612;SDS011;8419;52.358;9.752;2023-05-07T07:25:50;8.40;;;7.10;;
16612;SDS011;8419;52.358;9.752;2023-05-07T07:28:36;10.32;;;6.68;;
16612;SDS011;8419;52.358;9.752;2023-05-07T07:31:27;7.93;;;7.12;;
16612;SDS011;8419;52.358;9.752;2023-05-07T07:34:12;9.95;;;7.68;;
16612;SDS011;8419;52.358;9.752;2023-05-07T07:36:59;8.57;;;7.43;;
16612;SDS011;8419;52.358;9.752;2023-05-07T07:39:49;8.48;;;7.28;;
16612;SDS011;8419;52.358;9.752;2023-05-07T07:42:35;8.15;;;7.18;;
16612;SDS011;8419;52.358;9.752;2023-05-07T07:45:20;9.48;;;7.50;;
16612;SDS011;8419;52.358;9.752;2023-05-07T07:48:06;9.32;;;7.57;;
16612;SDS011;8419;52.358;9.752;2023-05-07T07:50:52;12.05;;;7.43;;
16612;SDS011;8419;52.358;9.752;2023-05-07T07:53:37;8.30;;;7.32;;
16612;SDS011;8419;52.358;9.752;2023-05-07T07:56:25;9.35;;;7.53;;
16612;SDS011;8419;52.358;9.752;2023-05-07T07:59:10;11.63;;;8.02;;
16612;SDS011;8419;52.358;9.752;2023-05-07T08:01:57;12.90;;;7.80;;
16612;SDS011;8419;52.358;9.752;2023-05-07T08:04:43;8.65;;;7.40;;
16612;SDS011;8419;52.358;9.752;2023-05-07T08:07:28;8.75;;;7.57;;
16612;SDS011;8419;52.358;9.752;2023-05-07T08:10:14;9.27;;;7.47;;
16612;SDS011;8419;52.358;9.752;2023-05-07T08:13:05;9.57;;;7.53;;
16612;SDS011;8419;52.358;9.752;2023-05-07T08:15:50;9.82;;;6.90;;
16612;SDS011;8419;52.358;9.752;2023-05-07T08:18:36;6.65;;;6.05;;
16612;SDS011;8419;52.358;9.752;2023-05-07T08:21:21;8.57;;;6.03;;
16612;SDS011;8419;52.358;9.752;2023-05-07T08:24:06;8.20;;;6.95;;
16612;SDS011;8419;52.358;9.752;2023-05-07T08:26:52;8.70;;;6.93;;
16612;SDS011;8419;52.358;9.752;2023-05-07T08:29:38;10.27;;;9.18;;
16612;SDS011;8419;52.358;9.752;2023-05-07T08:32:24;10.93;;;8.15;;
16612;SDS011;8419;52.358;9.752;2023-05-07T08:35:09;8.63;;;7.78;;
16612;SDS011;8419;52.358;9.752;2023-05-07T08:37:57;9.52;;;7.75;;
16612;SDS011;8419;52.358;9.752;2023-05-07T08:40:43;7.45;;;6.65;;
16612;SDS011;8419;52.358;9.752;2023-05-07T08:43:29;7.50;;;6.03;;
16612;SDS011;8419;52.358;9.752;2023-05-07T08:46:18;8.60;;;5.85;;
16612;SDS011;8419;52.358;9.752;2023-05-07T08:49:06;7.80;;;6.45;;
16612;SDS011;8419;52.358;9.752;2023-05-07T08:51:52;8.20;;;6.10;;
16612;SDS011;8419;52.358;9.752;2023-05-07T08:54:37;6.90;;;6.20;;
16612;SDS011;8419;52.358;9.752;2023-05-07T08:57:25;7.43;;;5.82;;
16612;SDS011;8419;52.358;9.752;2023-05-07T09:00:14;7.87;;;6.35;;
16612;SDS011;8419;52.358;9.752;2023-05-07T09:03:00;6.72;;;5.80;;
16612;SDS011;8419;52.358;9.752;2023-05-07T09:05:46;7.72;;;6.72;;
16612;SDS011;8419;52.358;9.752;2023-05-07T09:08:33;8.20;;;6.47;;
16612;SDS011;8419;52.358;9.752;2023-05-07T09:11:20;7.18;;;6.40;;
16612;SDS011;8419;52.358;9.752;2023-05-07T09:14:07;7.85;;;6.47;;
16612;SDS011;8419;52.358;9.752;2023-05-07T09:16:53;8.57;;;6.60;;
16612;SDS011;8419;52.358;9.752;2023-05-07T09:19:38;8.77;;;6.97;;
16612;SDS011;8419;52.358;9.752;2023-05-07T09:22:27;7.68;;;6.30;;
16612;SDS011;8419;52.358;9.752;2023-05-07T09:25:16;7.95;;;6.55;;
16612;SDS011;8419;52.358;9.752;2023-05-07T09:28:12;7.47;;;6.60;;
16612;SDS011;8419;52.358;9.752;2023-05-07T09:30:58;7.80;;;6.90;;
16612;SDS011;8419;52.358;9.752;2023-05-07T09:33:46;8.05;;;6.62;;
16612;SDS011;8419;52.358;9.752;2023-05-07T09:36:32;7.72;;;6.07;;
16612;SDS011;8419;52.358;9.752;2023-05-07T09:39:17;6.40;;;5.70;;
16612;SDS011;8419;52.358;9.752;2023-05-07T09:42:05;7.97;;;5.78;;
16612;SDS011;8419;52.358;9.752;2023-05-07T09:44:53;8.07;;;6.18;;
16612;SDS011;8419;52.358;9.752;2023-05-07T09:47:40;7.90;;;5.78;;
16612;SDS011;8419;52.358;9.752;2023-05-07T09:50:30;7.72;;;6.28;;
16612;SDS011;8419;52.358;9.752;2023-05-07T09:53:20;7.35;;;6.10;;
16612;SDS011;8419;52.358;9.752;2023-05-07T09:56:10;6.35;;;5.35;;
16612;SDS011;8419;52.358;9.752;2023-05-07T09:58:57;7.22;;;6.32;;
16612;SDS011;8419;52.358;9.752;2023-05-07T10:01:45;7.47;;;6.00;;
16612;SDS011;8419;52.358;9.752;2023-05-07T10:04:31;7.70;;;6.40;;
16612;SDS011;8419;52.358;9.752;2023-05-07T10:07:16;7.47;;;5.97;;
16612;SDS011;8419;52.358;9.752;2023-05-07T10:10:03;7.87;;;6.37;;
16612;SDS011;8419;52.358;9.752;2023-05-07T10:12:51;7.53;;;6.22;;
16612;SDS011;8419;52.358;9.752;2023-05-07T10:15:37;8.52;;;6.45;;
16612;SDS011;8419;52.358;9.752;2023-05-07T10:18:23;8.27;;;6.28;;
16612;SDS011;8419;52.358;9.752;2023-05-07T10:21:15;7.68;;;6.90;;
16612;SDS011;8419;52.358;9.752;2023-05-07T10:24:03;7.10;;;5.97;;
16612;SDS011;8419;52.358;9.752;2023-05-07T10:26:53;10.05;;;6.55;;
16612;SDS011;8419;52.358;9.752;2023-05-07T10:29:42;8.65;;;6.20;;
16612;SDS011;8419;52.358;9.752;2023-05-07T10:32:39;8.38;;;6.60;;
16612;SDS011;8419;52.358;9.752;2023-05-07T10:35:29;6.50;;;5.90;;
16612;SDS011;8419;52.358;9.752;2023-05-07T10:38:20;7.57;;;6.25;;
16612;SDS011;8419;52.358;9.752;2023-05-07T10:41:06;6.95;;;6.25;;
16612;SDS011;8419;52.358;9.752;2023-05-07T10:43:51;7.28;;;6.35;;
16612;SDS011;8419;52.358;9.752;2023-05-07T10:46:37;7.18;;;5.85;;
16612;SDS011;8419;52.358;9.752;2023-05-07T10:49:25;7.97;;;5.97;;
16612;SDS011;8419;52.358;9.752;2023-05-07T10:52:14;6.65;;;5.82;;
16612;SDS011;8419;52.358;9.752;2023-05-07T10:55:20;6.18;;;5.57;;
16612;SDS011;8419;52.358;9.752;2023-05-07T10:58:24;7.62;;;6.10;;
16612;SDS011;8419;52.358;9.752;2023-05-07T11:01:11;7.00;;;5.82;;
16612;SDS011;8419;52.358;9.752;2023-05-07T11:04:15;5.93;;;5.00;;
16612;SDS011;8419;52.358;9.752;2023-05-07T11:10:12;5.80;;;5.20;;
16612;SDS011;8419;52.358;9.752;2023-05-07T11:12:58;8.25;;;5.87;;
16612;SDS011;8419;52.358;9.752;2023-05-07T11:15:44;6.55;;;5.47;;
16612;SDS011;8419;52.358;9.752;2023-05-07T11:18:46;6.80;;;5.30;;
16612;SDS011;8419;52.358;9.752;2023-05-07T11:21:33;7.35;;;4.90;;
16612;SDS011;8419;52.358;9.752;2023-05-07T11:24:19;5.18;;;4.68;;
16612;SDS011;8419;52.358;9.752;2023-05-07T11:27:06;5.68;;;5.18;;
16612;SDS011;8419;52.358;9.752;2023-05-07T11:29:51;7.25;;;5.30;;
16612;SDS011;8419;52.358;9.752;2023-05-07T11:32:37;9.48;;;4.40;;
16612;SDS011;8419;52.358;9.752;2023-05-07T11:35:23;5.68;;;5.10;;
16612;SDS011;8419;52.358;9.752;2023-05-07T11:38:08;4.90;;;4.30;;
16612;SDS011;8419;52.358;9.752;2023-05-07T11:40:54;6.75;;;5.22;;
16612;SDS011;8419;52.358;9.752;2023-05-07T11:43:53;6.62;;;4.50;;
16612;SDS011;8419;52.358;9.752;2023-05-07T11:46:42;6.65;;;5.53;;
16612;SDS011;8419;52.358;9.752;2023-05-07T11:49:28;5.47;;;4.90;;
16612;SDS011;8419;52.358;9.752;2023-05-07T11:52:15;5.65;;;5.10;;
16612;SDS011;8419;52.358;9.752;2023-05-07T11:55:02;5.47;;;4.90;;
16612;SDS011;8419;52.358;9.752;2023-05-07T11:57:48;6.10;;;4.22;;
16612;SDS011;8419;52.358;9.752;2023-05-07T12:00:33;7.65;;;4.45;;
16612;SDS011;8419;52.358;9.752;2023-05-07T12:03:18;4.78;;;4.28;;
16612;SDS011;8419;52.358;9.752;2023-05-07T12:06:06;4.55;;;4.15;;
16612;SDS011;8419;52.358;9.752;2023-05-07T12:08:51;5.00;;;4.40;;
16612;SDS011;8419;52.358;9.752;2023-05-07T12:11:38;5.78;;;5.00;;
16612;SDS011;8419;52.358;9.752;2023-05-07T12:14:27;7.68;;;4.40;;
16612;SDS011;8419;52.358;9.752;2023-05-07T12:17:13;7.55;;;4.18;;
16612;SDS011;8419;52.358;9.752;2023-05-07T12:19:59;5.60;;;4.10;;
16612;SDS011;8419;52.358;9.752;2023-05-07T12:22:47;5.90;;;4.85;;
16612;SDS011;8419;52.358;9.752;2023-05-07T12:25:34;4.30;;;3.90;;
16612;SDS011;8419;52.358;9.752;2023-05-07T12:28:20;4.25;;;3.67;;
16612;SDS011;8419;52.358;9.752;2023-05-07T12:31:05;4.30;;;3.90;;
16612;SDS011;8419;52.358;9.752;2023-05-07T12:33:51;4.82;;;3.92;;
16612;SDS011;8419;52.358;9.752;2023-05-07T12:36:37;4.07;;;3.67;;
16612;SDS011;8419;52.358;9.752;2023-05-07T12:39:23;4.93;;;3.80;;
16612;SDS011;8419;52.358;9.752;2023-05-07T12:42:08;4.62;;;4.10;;
16612;SDS011;8419;52.358;9.752;2023-05-07T12:44:59;4.18;;;3.78;;
16612;SDS011;8419;52.358;9.752;2023-05-07T12:47:51;5.40;;;4.07;;
16612;SDS011;8419;52.358;9.752;2023-05-07T12:50:37;4.55;;;4.15;;
16612;SDS011;8419;52.358;9.752;2023-05-07T12:53:23;4.62;;;4.22;;
16612;SDS011;8419;52.358;9.752;2023-05-07T12:56:10;4.28;;;3.87;;
16612;SDS011;8419;52.358;9.752;2023-05-07T12:58:57;7.50;;;4.35;;
16612;SDS011;8419;52.358;9.752;2023-05-07T13:01:43;4.20;;;3.80;;
16612;SDS011;8419;52.358;9.752;2023-05-07T13:04:29;5.12;;;4.62;;
16612;SDS011;8419;52.358;9.752;2023-05-07T13:07:15;6.28;;;4.32;;
16612;SDS011;8419;52.358;9.752;2023-05-07T13:10:00;5.43;;;4.93;;
16612;SDS011;8419;52.358;9.752;2023-05-07T13:12:45;5.75;;;5.25;;
16612;SDS011;8419;52.358;9.752;2023-05-07T13:15:30;5.15;;;4.65;;
16612;SDS011;8419;52.358;9.752;2023-05-07T13:18:16;5.57;;;5.07;;
16612;SDS011;8419;52.358;9.752;2023-05-07T13:21:02;5.75;;;5.15;;
16612;SDS011;8419;52.358;9.752;2023-05-07T13:23:47;5.95;;;5.40;;
16612;SDS011;8419;52.358;9.752;2023-05-07T13:26:32;4.65;;;4.25;;
16612;SDS011;8419;52.358;9.752;2023-05-07T13:29:18;6.97;;;4.80;;
16612;SDS011;8419;52.358;9.752;2023-05-07T13:32:03;5.22;;;4.68;;
16612;SDS011;8419;52.358;9.752;2023-05-07T13:34:48;4.60;;;4.28;;
16612;SDS011;8419;52.358;9.752;2023-05-07T13:37:35;5.07;;;4.57;;
16612;SDS011;8419;52.358;9.752;2023-05-07T13:40:21;5.47;;;4.80;;
16612;SDS011;8419;52.358;9.752;2023-05-07T13:43:07;5.90;;;5.32;;
16612;SDS011;8419;52.358;9.752;2023-05-07T13:45:52;5.70;;;5.20;;
16612;SDS011;8419;52.358;9.752;2023-05-07T13:48:37;4.95;;;4.55;;
16612;SDS011;8419;52.358;9.752;2023-05-07T13:51:23;5.97;;;4.70;;
16612;SDS011;8419;52.358;9.752;2023-05-07T13:54:08;5.53;;;4.95;;
16612;SDS011;8419;52.358;9.752;2023-05-07T13:56:54;5.75;;;5.15;;
16612;SDS011;8419;52.358;9.752;2023-05-07T13:59:39;5.32;;;4.82;;
16612;SDS011;8419;52.358;9.752;2023-05-07T14:02:25;5.20;;;4.70;;
16612;SDS011;8419;52.358;9.752;2023-05-07T14:05:10;8.93;;;4.68;;
16612;SDS011;8419;52.358;9.752;2023-05-07T14:07:57;5.28;;;4.87;;
16612;SDS011;8419;52.358;9.752;2023-05-07T14:10:43;4.47;;;4.05;;
16612;SDS011;8419;52.358;9.752;2023-05-07T14:13:28;4.70;;;4.30;;
16612;SDS011;8419;52.358;9.752;2023-05-07T14:16:14;4.55;;;4.10;;
16612;SDS011;8419;52.358;9.752;2023-05-07T14:18:59;5.00;;;4.50;;
16612;SDS011;8419;52.358;9.752;2023-05-07T14:21:45;4.65;;;4.25;;
16612;SDS011;8419;52.358;9.752;2023-05-07T14:24:30;4.05;;;3.75;;
16612;SDS011;8419;52.358;9.752;2023-05-07T14:27:16;4.45;;;4.05;;
16612;SDS011;8419;52.358;9.752;2023-05-07T14:30:01;5.32;;;4.20;;
16612;SDS011;8419;52.358;9.752;2023-05-07T14:32:46;5.68;;;4.07;;
16612;SDS011;8419;52.358;9.752;2023-05-07T14:35:31;4.47;;;4.07;;
16612;SDS011;8419;52.358;9.752;2023-05-07T14:38:17;5.50;;;4.80;;
16612;SDS011;8419;52.358;9.752;2023-05-07T14:41:03;5.87;;;4.22;;
16612;SDS011;8419;52.358;9.752;2023-05-07T14:43:48;6.87;;;6.18;;
16612;SDS011;8419;52.358;9.752;2023-05-07T14:46:34;5.95;;;4.47;;
16612;SDS011;8419;52.358;9.752;2023-05-07T14:49:19;5.62;;;4.47;;
16612;SDS011;8419;52.358;9.752;2023-05-07T14:52:05;7.55;;;4.20;;
16612;SDS011;8419;52.358;9.752;2023-05-07T14:54:52;5.45;;;4.53;;
16612;SDS011;8419;52.358;9.752;2023-05-07T14:57:37;4.70;;;4.20;;
16612;SDS011;8419;52.358;9.752;2023-05-07T15:00:23;7.32;;;4.35;;
16612;SDS011;8419;52.358;9.752;2023-05-07T15:03:09;4.25;;;3.70;;
16612;SDS011;8419;52.358;9.752;2023-05-07T15:05:55;4.25;;;3.85;;
16612;SDS011;8419;52.358;9.752;2023-05-07T15:08:40;4.35;;;3.80;;
16612;SDS011;8419;52.358;9.752;2023-05-07T15:11:26;4.18;;;3.78;;
16612;SDS011;8419;52.358;9.752;2023-05-07T15:14:12;5.60;;;4.10;;
16612;SDS011;8419;52.358;9.752;2023-05-07T15:16:58;7.07;;;3.97;;
16612;SDS011;8419;52.358;9.752;2023-05-07T15:19:43;4.57;;;4.18;;
16612;SDS011;8419;52.358;9.752;2023-05-07T15:22:28;7.75;;;4.18;;
16612;SDS011;8419;52.358;9.752;2023-05-07T15:25:13;5.68;;;4.75;;
16612;SDS011;8419;52.358;9.752;2023-05-07T15:27:59;6.43;;;4.53;;
16612;SDS011;8419;52.358;9.752;2023-05-07T15:30:44;5.72;;;4.30;;
16612;SDS011;8419;52.358;9.752;2023-05-07T15:33:29;5.68;;;4.30;;
16612;SDS011;8419;52.358;9.752;2023-05-07T15:36:15;5.23;;;3.98;;
16612;SDS011;8419;52.358;9.752;2023-05-07T15:39:01;5.12;;;4.22;;
16612;SDS011;8419;52.358;9.752;2023-05-07T15:41:48;5.75;;;4.03;;
16612;SDS011;8419;52.358;9.752;2023-05-07T15:44:35;8.35;;;4.37;;
16612;SDS011;8419;52.358;9.752;2023-05-07T15:47:21;5.18;;;4.68;;
16612;SDS011;8419;52.358;9.752;2023-05-07T15:50:06;5.00;;;4.45;;
16612;SDS011;8419;52.358;9.752;2023-05-07T15:52:52;4.62;;;4.20;;
16612;SDS011;8419;52.358;9.752;2023-05-07T15:55:39;6.32;;;4.87;;
16612;SDS011;8419;52.358;9.752;2023-05-07T15:58:27;6.78;;;4.85;;
16612;SDS011;8419;52.358;9.752;2023-05-07T16:01:12;5.25;;;4.75;;
16612;SDS011;8419;52.358;9.752;2023-05-07T16:03:58;7.45;;;5.10;;
16612;SDS011;8419;52.358;9.752;2023-05-07T16:06:43;8.15;;;5.03;;
16612;SDS011;8419;52.358;9.752;2023-05-07T16:09:30;5.30;;;4.60;;
16612;SDS011;8419;52.358;9.752;2023-05-07T16:12:16;4.93;;;4.32;;
16612;SDS011;8419;52.358;9.752;2023-05-07T16:15:02;5.15;;;4.65;;
16612;SDS011;8419;52.358;9.752;2023-05-07T16:17:48;6.10;;;4.40;;
16612;SDS011;8419;52.358;9.752;2023-05-07T16:20:34;5.20;;;4.70;;
16612;SDS011;8419;52.358;9.752;2023-05-07T16:23:20;5.05;;;4.43;;
16612;SDS011;8419;52.358;9.752;2023-05-07T16:26:05;4.95;;;4.45;;
16612;SDS011;8419;52.358;9.752;2023-05-07T16:28:51;5.05;;;4.40;;
16612;SDS011;8419;52.358;9.752;2023-05-07T16:31:36;5.10;;;4.60;;
16612;SDS011;8419;52.358;9.752;2023-05-07T16:34:21;6.32;;;4.70;;
16612;SDS011;8419;52.358;9.752;2023-05-07T16:37:06;6.40;;;5.20;;
16612;SDS011;8419;52.358;9.752;2023-05-07T16:39:51;6.82;;;5.07;;
16612;SDS011;8419;52.358;9.752;2023-05-07T16:42:37;5.75;;;5.25;;
16612;SDS011;8419;52.358;9.752;2023-05-07T16:45:22;7.07;;;4.85;;
16612;SDS011;8419;52.358;9.752;2023-05-07T16:48:08;7.70;;;5.85;;
16612;SDS011;8419;52.358;9.752;2023-05-07T16:50:54;5.90;;;5.30;;
16612;SDS011;8419;52.358;9.752;2023-05-07T16:53:42;7.68;;;5.25;;
16612;SDS011;8419;52.358;9.752;2023-05-07T16:56:27;6.25;;;5.65;;